createdAt,value
2022-09-23T00:01:09.510Z,0.80
2022-09-23T00:03:38.285Z,0.80
2022-09-23T00:06:10.644Z,0.93
2022-09-23T00:08:38.109Z,0.98
2022-09-23T00:11:13.685Z,0.70
2022-09-23T00:13:42.211Z,1.10
2022-09-23T00:16:11.862Z,0.70
2022-09-23T00:18:38.416Z,1.00
2022-09-23T00:21:06.446Z,0.80
2022-09-23T00:23:33.168Z,0.70
2022-09-23T00:26:01.251Z,0.93
2022-09-23T00:28:27.967Z,0.93
2022-09-23T00:30:54.337Z,0.88
2022-09-23T00:33:20.705Z,1.10
2022-09-23T00:35:47.648Z,1.13
2022-09-23T00:38:14.292Z,0.95
2022-09-23T00:40:47.155Z,1.10
2022-09-23T00:43:17.786Z,0.98
2022-09-23T00:45:49.278Z,1.30
2022-09-23T00:48:20.341Z,1.10
2022-09-23T00:50:54.311Z,0.95
2022-09-23T00:53:23.742Z,1.23
2022-09-23T00:55:54.100Z,1.20
2022-09-23T00:58:26.678Z,0.93
2022-09-23T01:00:54.326Z,1.05
2022-09-23T01:03:22.700Z,0.60
2022-09-23T01:05:50.056Z,0.87
2022-09-23T01:08:16.631Z,0.77
2022-09-23T01:11:01.139Z,0.88
2022-09-23T01:13:42.031Z,0.88
2022-09-23T01:16:22.194Z,0.95
2022-09-23T01:19:10.078Z,1.40
2022-09-23T01:22:04.944Z,0.90
2022-09-23T01:24:47.705Z,0.85
2022-09-23T01:27:35.621Z,0.70
2022-09-23T01:30:16.555Z,0.63
2022-09-23T01:33:04.669Z,0.90
2022-09-23T01:35:51.362Z,1.58
2022-09-23T01:38:34.619Z,0.88
2022-09-23T01:41:25.980Z,0.60
2022-09-23T01:44:13.352Z,0.68
2022-09-23T01:47:00.640Z,1.00
2022-09-23T01:49:56.250Z,0.93
2022-09-23T01:52:32.621Z,0.93
2022-09-23T01:55:10.943Z,0.68
2022-09-23T01:57:48.771Z,0.52
2022-09-23T02:00:17.893Z,1.17
2022-09-23T02:03:01.284Z,0.73
2022-09-23T02:05:29.956Z,0.60
2022-09-23T02:08:03.078Z,0.70
2022-09-23T02:10:35.985Z,0.70
2022-09-23T02:13:08.610Z,0.90
2022-09-23T02:15:40.819Z,0.73
2022-09-23T02:18:16.656Z,0.70
2022-09-23T02:20:43.708Z,0.80
2022-09-23T02:23:14.119Z,0.77
2022-09-23T02:26:24.787Z,0.80
2022-09-23T02:29:19.703Z,0.90
2022-09-23T02:31:55.274Z,0.70
2022-09-23T02:34:42.335Z,0.60
2022-09-23T02:37:26.230Z,0.73
2022-09-23T02:39:52.500Z,0.80
2022-09-23T02:42:23.756Z,0.75
2022-09-23T02:44:50.479Z,0.52
2022-09-23T02:47:24.023Z,0.60
2022-09-23T02:49:50.453Z,0.60
2022-09-23T02:52:17.377Z,0.50
2022-09-23T02:54:44.223Z,0.60
2022-09-23T02:57:10.684Z,0.63
2022-09-23T02:59:37.203Z,0.70
2022-09-23T03:02:40.699Z,0.82
2022-09-23T03:05:23.840Z,0.70
2022-09-23T03:08:19.172Z,0.88
2022-09-23T03:10:55.961Z,0.60
2022-09-23T03:13:39.491Z,0.80
2022-09-23T03:16:21.010Z,0.85
2022-09-23T03:19:24.843Z,0.70
2022-09-23T03:22:00.996Z,0.82
2022-09-23T03:24:34.472Z,0.70
2022-09-23T03:27:05.291Z,0.60
2022-09-23T03:29:33.875Z,0.60
2022-09-23T03:32:00.421Z,0.80
2022-09-23T03:34:30.674Z,0.70
2022-09-23T03:37:02.902Z,1.05
2022-09-23T03:39:29.196Z,0.68
2022-09-23T03:41:58.767Z,0.50
2022-09-23T03:44:25.336Z,0.53
2022-09-23T03:46:51.705Z,0.65
2022-09-23T03:49:30.028Z,0.70
2022-09-23T03:51:56.454Z,0.60
2022-09-23T03:54:22.832Z,0.63
2022-09-23T03:56:49.604Z,0.80
2022-09-23T03:59:16.643Z,0.88
2022-09-23T04:01:43.310Z,0.70
2022-09-23T04:04:10.381Z,0.60
2022-09-23T04:06:36.711Z,0.50
2022-09-23T04:09:03.392Z,0.50
2022-09-23T04:11:29.808Z,0.85
2022-09-23T04:13:56.639Z,0.60
2022-09-23T04:16:23.080Z,0.52
2022-09-23T04:18:49.640Z,0.65
2022-09-23T04:21:16.001Z,0.60
2022-09-23T04:23:42.801Z,0.50
2022-09-23T04:26:09.729Z,0.60
2022-09-23T04:28:36.195Z,0.50
2022-09-23T04:31:07.552Z,0.50
2022-09-23T04:33:34.279Z,0.50
2022-09-23T04:36:01.216Z,0.70
2022-09-23T04:38:27.552Z,0.50
2022-09-23T04:40:53.958Z,0.60
2022-09-23T04:43:23.328Z,0.43
2022-09-23T04:46:09.830Z,0.60
2022-09-23T04:48:37.982Z,0.65
2022-09-23T04:51:08.571Z,0.77
2022-09-23T04:53:37.096Z,0.68
2022-09-23T04:56:05.903Z,0.70
2022-09-23T04:58:34.407Z,0.60
2022-09-23T05:01:26.799Z,0.95
2022-09-23T05:04:02.273Z,0.80
2022-09-23T05:06:31.345Z,0.80
2022-09-23T05:08:59.110Z,0.60
2022-09-23T05:11:26.416Z,0.90
2022-09-23T05:13:54.084Z,0.82
2022-09-23T05:16:23.179Z,0.80
2022-09-23T05:18:50.633Z,0.70
2022-09-23T05:21:20.835Z,0.70
2022-09-23T05:23:49.116Z,0.80
2022-09-23T05:26:16.047Z,0.77
2022-09-23T05:28:42.402Z,0.77
2022-09-23T05:31:19.696Z,0.85
2022-09-23T05:34:00.996Z,1.27
2022-09-23T05:36:32.129Z,0.63
2022-09-23T05:39:02.510Z,0.82
2022-09-23T05:41:28.849Z,0.60
2022-09-23T05:43:56.417Z,1.00
2022-09-23T05:46:27.693Z,0.75
2022-09-23T05:48:59.887Z,0.70
2022-09-23T05:51:30.913Z,0.93
2022-09-23T05:53:58.818Z,0.75
2022-09-23T05:56:27.641Z,0.68
2022-09-23T05:58:56.102Z,0.75
2022-09-23T06:01:25.268Z,0.90
2022-09-23T06:03:56.584Z,1.50
2022-09-23T06:06:30.174Z,1.02
2022-09-23T06:08:57.132Z,1.00
2022-09-23T06:11:23.589Z,0.80
2022-09-23T06:13:54.767Z,0.97
2022-09-23T06:16:21.171Z,1.02
2022-09-23T06:18:47.778Z,0.50
2022-09-23T06:21:17.772Z,1.05
2022-09-23T06:23:45.442Z,1.10
2022-09-23T06:26:14.456Z,1.03
2022-09-23T06:28:42.896Z,0.80
2022-09-23T06:31:16.871Z,0.80
2022-09-23T06:33:45.134Z,0.75
2022-09-23T06:36:17.539Z,1.05
2022-09-23T06:38:50.985Z,1.10
2022-09-23T06:41:17.507Z,1.05
2022-09-23T06:43:43.815Z,0.90
2022-09-23T06:46:15.519Z,1.15
2022-09-23T06:48:46.131Z,1.00
2022-09-23T06:51:20.009Z,1.00
2022-09-23T06:53:47.581Z,1.25
2022-09-23T06:56:14.929Z,1.33
2022-09-23T06:58:41.337Z,1.73
2022-09-23T07:01:10.084Z,1.10
2022-09-23T07:03:36.653Z,1.70
2022-09-23T07:06:03.633Z,1.10
2022-09-23T07:08:30.479Z,1.30
2022-09-23T07:10:59.099Z,1.48
2022-09-23T07:13:26.328Z,1.10
2022-09-23T07:15:54.682Z,1.40
2022-09-23T07:18:23.788Z,1.38
2022-09-23T07:20:50.383Z,1.23
2022-09-23T07:23:17.782Z,1.60
2022-09-23T07:25:46.518Z,1.17
2022-09-23T07:28:13.635Z,1.40
2022-09-23T07:30:48.942Z,1.27
2022-09-23T07:33:30.290Z,1.30
2022-09-23T07:35:57.619Z,1.02
2022-09-23T07:38:26.511Z,1.33
2022-09-23T07:40:52.901Z,1.10
2022-09-23T07:43:19.305Z,1.42
2022-09-23T07:45:46.982Z,1.63
2022-09-23T07:48:13.775Z,1.23
2022-09-23T07:50:40.372Z,1.20
2022-09-23T07:53:08.444Z,1.30
2022-09-23T07:55:35.087Z,1.10
2022-09-23T07:58:01.601Z,1.20
2022-09-23T08:00:28.005Z,1.40
2022-09-23T08:02:54.347Z,1.35
2022-09-23T08:05:22.623Z,1.40
2022-09-23T08:07:49.374Z,1.15
2022-09-23T08:10:20.314Z,1.60
2022-09-23T08:12:47.717Z,1.50
2022-09-23T08:15:14.199Z,1.50
2022-09-23T08:17:40.533Z,1.20
2022-09-23T08:20:07.411Z,1.52
2022-09-23T08:22:33.732Z,1.30
2022-09-23T08:25:00.055Z,1.35
2022-09-23T08:27:29.256Z,1.40
2022-09-23T08:29:55.580Z,1.70
2022-09-23T08:32:22.140Z,1.20
2022-09-23T08:34:49.033Z,1.52
2022-09-23T08:37:15.363Z,1.45
2022-09-23T08:39:41.669Z,1.15
2022-09-23T08:42:21.850Z,1.37
2022-09-23T08:44:53.164Z,1.25
2022-09-23T08:47:45.676Z,1.50
2022-09-23T08:50:24.024Z,1.63
2022-09-23T08:52:56.864Z,1.30
2022-09-23T08:55:32.489Z,1.60
2022-09-23T08:58:24.329Z,1.20
2022-09-23T09:01:03.254Z,1.30
2022-09-23T09:03:37.999Z,1.27
2022-09-23T09:06:04.573Z,1.10
2022-09-23T09:08:34.809Z,1.43
2022-09-23T09:11:02.511Z,1.20
2022-09-23T09:13:34.548Z,1.10
2022-09-23T09:16:55.499Z,1.23
2022-09-23T09:19:21.655Z,1.33
2022-09-23T09:21:53.528Z,1.20
2022-09-23T09:24:33.761Z,1.00
2022-09-23T09:27:11.732Z,1.50
2022-09-23T09:29:42.481Z,1.35
2022-09-23T09:32:33.609Z,0.90
2022-09-23T09:35:09.187Z,0.93
2022-09-23T09:37:46.926Z,1.75
2022-09-23T09:40:16.938Z,0.85
2022-09-23T09:42:47.896Z,1.30
2022-09-23T09:45:14.139Z,0.98
2022-09-23T09:47:56.556Z,1.30
2022-09-23T09:50:44.336Z,0.80
2022-09-23T09:53:35.568Z,1.10
2022-09-23T09:56:07.898Z,1.15
2022-09-23T09:58:55.860Z,1.08
2022-09-23T10:01:31.759Z,1.07
2022-09-23T10:04:19.373Z,1.10
2022-09-23T10:07:05.381Z,1.65
2022-09-23T10:09:35.798Z,0.85
2022-09-23T10:12:23.830Z,0.98
2022-09-23T10:14:57.099Z,1.13
2022-09-23T10:17:26.479Z,1.33
2022-09-23T10:20:01.780Z,1.00
2022-09-23T10:22:33.352Z,1.35
2022-09-23T10:25:08.509Z,1.13
2022-09-23T10:27:36.313Z,0.80
2022-09-23T10:30:14.936Z,1.17
2022-09-23T10:32:45.087Z,1.10
2022-09-23T10:35:15.365Z,0.82
2022-09-23T10:38:08.410Z,0.93
2022-09-23T10:40:57.988Z,0.90
2022-09-23T10:43:54.730Z,0.98
2022-09-23T10:46:41.138Z,1.10
2022-09-23T10:49:25.920Z,1.30
2022-09-23T10:52:01.516Z,1.08
2022-09-23T10:54:36.836Z,0.93
2022-09-23T10:57:40.442Z,0.90
2022-09-23T11:00:18.684Z,0.88
2022-09-23T11:02:51.012Z,0.82
2022-09-23T11:05:38.152Z,0.82
2022-09-23T11:08:28.773Z,0.93
2022-09-23T11:11:23.360Z,1.02
2022-09-23T11:14:16.904Z,0.80
2022-09-23T11:17:01.308Z,0.90
2022-09-23T11:19:57.955Z,0.80
2022-09-23T11:22:35.970Z,1.07
2022-09-23T11:25:31.134Z,0.95
2022-09-23T11:28:06.517Z,0.77
2022-09-23T11:30:55.005Z,0.70
2022-09-23T11:33:37.538Z,0.90
2022-09-23T11:36:09.308Z,0.97
2022-09-23T11:38:48.752Z,0.60
2022-09-23T11:41:21.591Z,1.00
2022-09-23T11:43:55.000Z,1.40
2022-09-23T11:46:38.533Z,0.75
2022-09-23T11:49:09.233Z,0.70
2022-09-23T11:51:43.590Z,0.75
2022-09-23T11:54:45.399Z,0.90
2022-09-23T11:57:49.994Z,0.98
2022-09-23T12:00:22.282Z,0.63
2022-09-23T12:03:43.576Z,0.77
2022-09-23T12:06:24.659Z,0.98
2022-09-23T12:08:57.971Z,0.70
2022-09-23T12:11:26.521Z,1.08
2022-09-23T12:14:20.803Z,0.82
2022-09-23T12:17:19.497Z,0.70
2022-09-23T12:20:18.751Z,0.80
2022-09-23T12:22:50.870Z,0.70
2022-09-23T12:25:46.347Z,0.77
2022-09-23T12:28:37.677Z,1.63
2022-09-23T12:31:10.359Z,0.80
2022-09-23T12:33:38.627Z,1.15
2022-09-23T12:36:07.883Z,0.90
2022-09-23T12:38:40.280Z,0.95
2022-09-23T12:41:24.430Z,0.60
2022-09-23T12:43:58.951Z,0.77
2022-09-23T12:46:27.267Z,0.70
2022-09-23T12:48:54.337Z,0.60
2022-09-23T12:51:21.860Z,0.60
2022-09-23T12:53:50.587Z,0.95
2022-09-23T12:56:43.221Z,0.90
2022-09-23T12:59:17.463Z,0.68
2022-09-23T13:01:44.703Z,0.52
2022-09-23T13:04:46.506Z,0.70
2022-09-23T13:07:16.762Z,0.73
2022-09-23T13:09:48.742Z,0.67
2022-09-23T13:12:38.808Z,0.85
2022-09-23T13:15:16.180Z,0.80
2022-09-23T13:17:42.933Z,0.52
2022-09-23T13:20:36.388Z,0.65
2022-09-23T13:23:05.959Z,0.60
2022-09-23T13:25:39.587Z,0.50
2022-09-23T13:28:21.249Z,0.75
2022-09-23T13:30:51.933Z,0.70
2022-09-23T13:33:31.252Z,0.60
2022-09-23T13:36:04.662Z,0.80
2022-09-23T13:38:32.606Z,0.50
2022-09-23T13:41:03.117Z,0.52
2022-09-23T13:43:40.260Z,0.65
2022-09-23T13:46:13.966Z,0.68
2022-09-23T13:48:44.539Z,0.90
2022-09-23T13:51:16.013Z,0.70
2022-09-23T13:53:42.457Z,0.93
2022-09-23T13:56:14.303Z,0.60
2022-09-23T13:58:41.329Z,0.80
2022-09-23T14:01:29.845Z,1.10
2022-09-23T14:03:56.210Z,0.90
2022-09-23T14:06:22.615Z,0.50
2022-09-23T14:08:50.647Z,0.63
2022-09-23T14:11:20.414Z,0.77
2022-09-23T14:13:50.773Z,0.53
2022-09-23T14:16:18.048Z,0.60
2022-09-23T14:18:47.485Z,1.42
2022-09-23T14:21:28.802Z,0.63
2022-09-23T14:23:55.632Z,0.60
2022-09-23T14:26:23.872Z,0.70
2022-09-23T14:28:50.565Z,0.73
2022-09-23T14:31:16.934Z,0.65
2022-09-23T14:33:43.569Z,0.60
2022-09-23T14:36:34.454Z,0.90
2022-09-23T14:39:12.113Z,0.60
2022-09-23T14:41:42.566Z,0.70
2022-09-23T14:44:21.604Z,0.65
2022-09-23T14:46:56.855Z,0.70
2022-09-23T14:49:24.282Z,0.60
2022-09-23T14:52:05.647Z,1.00
2022-09-23T14:54:46.181Z,0.60
2022-09-23T14:57:25.204Z,0.60
2022-09-23T14:59:55.905Z,0.40
2022-09-23T15:02:42.647Z,0.63
2022-09-23T15:05:15.549Z,0.50
2022-09-23T15:07:44.315Z,0.63
2022-09-23T15:10:21.385Z,0.50
2022-09-23T15:12:50.323Z,0.52
2022-09-23T15:15:18.188Z,0.50
2022-09-23T15:17:45.878Z,0.50
2022-09-23T15:20:23.781Z,0.80
2022-09-23T15:22:53.891Z,0.70
2022-09-23T15:25:28.096Z,0.60
2022-09-23T15:28:17.953Z,0.40
2022-09-23T15:30:44.470Z,0.70
2022-09-23T15:33:13.420Z,0.70
2022-09-23T15:35:45.411Z,0.60
2022-09-23T15:38:12.159Z,0.70
2022-09-23T15:40:39.392Z,0.80
2022-09-23T15:43:21.125Z,0.70
2022-09-23T15:45:52.814Z,0.75
2022-09-23T15:48:22.632Z,0.82
2022-09-23T15:50:54.294Z,0.93
2022-09-23T15:53:24.176Z,1.20
2022-09-23T15:55:51.491Z,1.20
2022-09-23T15:58:22.377Z,1.20
2022-09-23T16:00:56.193Z,2.78
2022-09-23T16:03:28.897Z,1.92
2022-09-23T16:06:00.520Z,3.20
2022-09-23T16:08:27.908Z,3.13
2022-09-23T16:10:54.997Z,2.47
2022-09-23T16:13:21.412Z,2.38
2022-09-23T16:15:47.724Z,2.75
2022-09-23T16:18:14.148Z,2.40
2022-09-23T16:20:44.437Z,2.10
2022-09-23T16:23:34.483Z,2.47
2022-09-23T16:26:24.080Z,2.13
2022-09-23T16:28:52.934Z,1.42
2022-09-23T16:31:21.954Z,1.65
2022-09-23T16:33:48.776Z,1.60
2022-09-23T16:36:21.825Z,1.60
2022-09-23T16:38:48.181Z,1.40
2022-09-23T16:41:15.047Z,1.52
2022-09-23T16:43:41.827Z,1.60
2022-09-23T16:46:12.104Z,1.70
2022-09-23T16:48:40.402Z,1.30
2022-09-23T16:51:15.759Z,1.50
2022-09-23T16:53:42.652Z,2.63
2022-09-23T16:56:10.914Z,2.40
2022-09-23T16:58:38.270Z,1.80
2022-09-23T17:01:24.667Z,1.63
2022-09-23T17:03:51.227Z,1.40
2022-09-23T17:06:20.464Z,1.42
2022-09-23T17:08:50.960Z,1.25
2022-09-23T17:11:17.559Z,1.67
2022-09-23T17:13:44.269Z,1.45
2022-09-23T17:16:20.922Z,1.30
2022-09-23T17:18:47.492Z,1.17
2022-09-23T17:21:13.856Z,1.25
2022-09-23T17:23:40.142Z,0.93
2022-09-23T17:26:09.595Z,1.25
2022-09-23T17:28:35.983Z,1.40
2022-09-23T17:31:04.067Z,1.50
2022-09-23T17:33:35.751Z,1.40
2022-09-23T17:36:07.501Z,1.47
2022-09-23T17:38:34.944Z,1.55
2022-09-23T17:41:02.053Z,1.10
2022-09-23T17:43:30.091Z,1.80
2022-09-23T17:46:01.014Z,1.60
2022-09-23T17:48:27.373Z,1.93
2022-09-23T17:50:57.876Z,1.50
2022-09-23T17:53:24.823Z,1.27
2022-09-23T17:55:59.185Z,1.40
2022-09-23T17:58:30.018Z,1.50
2022-09-23T18:00:56.913Z,1.33
2022-09-23T18:03:24.873Z,1.88
2022-09-23T18:05:51.900Z,1.35
2022-09-23T18:08:18.594Z,1.27
2022-09-23T18:10:44.943Z,1.30
2022-09-23T18:13:11.595Z,1.70
2022-09-23T18:15:39.256Z,1.35
2022-09-23T18:18:07.159Z,1.48
2022-09-23T18:20:33.819Z,1.20
2022-09-23T18:23:00.145Z,1.58
2022-09-23T18:25:39.060Z,1.40
2022-09-23T18:28:06.229Z,1.48
2022-09-23T18:30:33.403Z,1.23
2022-09-23T18:32:59.958Z,2.17
2022-09-23T18:35:26.416Z,1.40
2022-09-23T18:37:52.909Z,1.80
2022-09-23T18:40:19.455Z,1.30
2022-09-23T18:42:45.851Z,1.80
2022-09-23T18:45:12.225Z,1.13
2022-09-23T18:47:57.096Z,2.13
2022-09-23T18:50:43.023Z,1.87
2022-09-23T18:53:09.975Z,1.05
2022-09-23T18:55:36.837Z,1.38
2022-09-23T18:58:03.327Z,1.20
2022-09-23T19:00:29.991Z,1.55
2022-09-23T19:02:56.372Z,1.03
2022-09-23T19:05:22.670Z,1.42
2022-09-23T19:07:49.030Z,1.60
2022-09-23T19:10:15.665Z,2.20
2022-09-23T19:12:42.039Z,1.88
2022-09-23T19:15:09.184Z,2.23
2022-09-23T19:17:35.515Z,1.67
2022-09-23T19:20:02.023Z,1.48
2022-09-23T19:22:30.297Z,1.48
2022-09-23T19:24:56.620Z,1.50
2022-09-23T19:27:23.382Z,1.60
2022-09-23T19:29:50.964Z,1.70
2022-09-23T19:32:17.383Z,1.52
2022-09-23T19:34:46.271Z,1.50
2022-09-23T19:37:12.568Z,1.30
2022-09-23T19:39:40.551Z,2.00
2022-09-23T19:42:07.554Z,1.38
2022-09-23T19:44:37.607Z,1.38
2022-09-23T19:47:03.987Z,1.17
2022-09-23T19:49:30.968Z,1.40
2022-09-23T19:51:57.313Z,1.27
2022-09-23T19:54:26.407Z,1.30
2022-09-23T19:56:52.776Z,1.23
2022-09-23T19:59:19.668Z,1.55
2022-09-23T20:01:47.501Z,1.60
2022-09-23T20:04:15.491Z,1.63
2022-09-23T20:06:41.880Z,1.58
2022-09-23T20:09:08.356Z,1.40
2022-09-23T20:11:35.038Z,1.83
2022-09-23T20:14:04.297Z,1.30
2022-09-23T20:16:33.691Z,1.40
2022-09-23T20:19:01.221Z,1.33
2022-09-23T20:21:29.074Z,1.27
2022-09-23T20:23:56.135Z,1.33
2022-09-23T20:26:40.779Z,1.45
2022-09-23T20:29:08.756Z,1.23
2022-09-23T20:31:35.277Z,1.88
2022-09-23T20:34:05.379Z,1.45
2022-09-23T20:36:32.815Z,1.63
2022-09-23T20:39:01.183Z,1.30
2022-09-23T20:41:29.664Z,1.37
2022-09-23T20:43:59.278Z,1.67
2022-09-23T20:46:26.683Z,1.38
2022-09-23T20:48:54.154Z,1.48
2022-09-23T20:51:20.878Z,1.60
2022-09-23T20:53:52.602Z,1.47
2022-09-23T20:56:22.085Z,1.58
2022-09-23T20:58:50.272Z,1.42
2022-09-23T21:01:16.686Z,1.60
2022-09-23T21:03:45.405Z,1.80
2022-09-23T21:06:14.130Z,1.37
2022-09-23T21:08:41.184Z,1.70
2022-09-23T21:11:11.128Z,2.13
2022-09-23T21:13:37.579Z,1.90
2022-09-23T21:16:09.610Z,1.67
2022-09-23T21:18:37.168Z,1.63
2022-09-23T21:21:04.748Z,1.50
2022-09-23T21:23:34.176Z,1.30
2022-09-23T21:26:04.224Z,1.85
2022-09-23T21:28:32.050Z,1.40
2022-09-23T21:31:04.546Z,1.97
2022-09-23T21:33:31.267Z,1.70
2022-09-23T21:36:04.123Z,1.63
2022-09-23T21:38:31.431Z,1.52
2022-09-23T21:41:00.772Z,1.55
2022-09-23T21:43:31.640Z,1.90
2022-09-23T21:46:03.418Z,2.10
2022-09-23T21:48:31.296Z,1.67
2022-09-23T21:51:02.676Z,1.58
2022-09-23T21:53:30.925Z,2.55
2022-09-23T21:56:20.662Z,2.13
2022-09-23T21:58:48.074Z,1.90
2022-09-23T22:01:18.040Z,1.77
2022-09-23T22:03:52.478Z,1.70
2022-09-23T22:06:24.575Z,2.55
2022-09-23T22:08:58.931Z,1.70
2022-09-23T22:11:48.372Z,2.20
2022-09-23T22:14:16.536Z,1.95
2022-09-23T22:16:43.478Z,1.70
2022-09-23T22:19:11.410Z,1.73
2022-09-23T22:21:39.894Z,2.00
2022-09-23T22:24:08.577Z,2.05
2022-09-23T22:26:38.435Z,2.30
2022-09-23T22:29:25.307Z,1.90
2022-09-23T22:32:10.043Z,1.70
2022-09-23T22:34:52.596Z,1.67
2022-09-23T22:37:21.600Z,2.20
2022-09-23T22:39:47.991Z,2.10
2022-09-23T22:42:14.364Z,1.88
2022-09-23T22:44:40.792Z,1.70
2022-09-23T22:47:08.027Z,2.20
2022-09-23T22:49:34.477Z,2.10
2022-09-23T22:52:03.892Z,1.90
2022-09-23T22:54:33.657Z,2.08
2022-09-23T22:57:03.638Z,2.10
2022-09-23T22:59:29.964Z,2.20
2022-09-23T23:01:57.409Z,2.28
2022-09-23T23:04:23.811Z,2.33
2022-09-23T23:06:53.341Z,2.50
2022-09-23T23:09:19.648Z,2.05
2022-09-23T23:11:47.028Z,2.30
2022-09-23T23:14:16.068Z,2.47
2022-09-23T23:16:43.555Z,2.50
2022-09-23T23:19:13.408Z,2.60
2022-09-23T23:21:43.181Z,2.67
2022-09-23T23:24:19.928Z,2.00
2022-09-23T23:26:47.348Z,2.55
2022-09-23T23:29:16.051Z,2.10
2022-09-23T23:31:43.021Z,2.40
2022-09-23T23:34:22.927Z,2.05
2022-09-23T23:36:54.782Z,2.50
2022-09-23T23:39:26.093Z,2.28
2022-09-23T23:41:54.642Z,2.47
2022-09-23T23:44:21.355Z,2.55
2022-09-23T23:46:49.124Z,2.30
2022-09-23T23:49:15.880Z,2.40
2022-09-23T23:51:42.351Z,2.30
2022-09-23T23:54:08.702Z,2.22
2022-09-23T23:56:35.089Z,2.80
2022-09-23T23:59:04.804Z,2.55
